Mab Eol II — FGA6050 — position and weather

sailwx.info

Track history (hours):
 
Tides and Currents Weather Stations Pressure Air Temp Water Temp Dewpoint Dewpoint Depression Visibility Wind Speed Wind Dir Waves Ship Positions

Mab Eol II

Last reported at 2018-Jun-23 06:30 UTC. Time now 2018-Jun-23 06:30 UTC.
Position N 47°34' W 003°18'.

Length 12 m; draft 7.7 m.

Type: Fishing. MMSI: 227316520.

Date/timePositionNaut miles runAvg speedWind from/ knotsBaromVisibWave heightAir tempDewpointWater temp
2018-Jun-23 06:30N 47°34' W 003°18'1 2.9
2018-Jun-23 06:00N 47°32' W 003°16'0 0.8
2018-Jun-23 05:31N 47°32' W 003°16'1 1.3
2018-Jun-23 05:00N 47°32' W 003°17'3 5.6
2018-Jun-23 04:30N 47°29' W 003°15'0 0.8
2018-Jun-23 03:58N 47°30' W 003°16'2 3.3
2018-Jun-23 03:30N 47°31' W 003°16'3 6.0
2018-Jun-23 03:00N 47°34' W 003°17'1 2.1
2018-Jun-23 02:30N 47°35' W 003°17'3 5.2
2018-Jun-23 02:00N 47°37' W 003°19'4 8.5
2018-Jun-23 01:30N 47°41' W 003°22'3 6.3
2018-Jun-23 01:00N 47°44' W 003°22'0 0.0
2018-Jun-22 11:46N 47°44' W 003°22'0 0.2
2018-Jun-22 11:29N 47°44' W 003°22'4 7.6
2018-Jun-22 11:00N 47°40' W 003°22'4 8.6
2018-Jun-22 10:30N 47°36' W 003°20'3 5.0
2018-Jun-22 09:59N 47°34' W 003°18'1 1.6
2018-Jun-22 09:30N 47°34' W 003°17'0 0.7
2018-Jun-22 09:00N 47°34' W 003°18'0 0.5
2018-Jun-22 08:30N 47°34' W 003°18'0 0.7
2018-Jun-22 08:01N 47°34' W 003°18'2 3.4
2018-Jun-22 07:30N 47°32' W 003°18'1 1.6
2018-Jun-22 07:00N 47°33' W 003°18'0 0.7
2018-Jun-22 06:30N 47°33' W 003°18'1 2.1
2018-Jun-22 06:00N 47°32' W 003°17'0 0.8
2018-Jun-22 05:30N 47°32' W 003°17'0 0.8
2018-Jun-22 05:00N 47°32' W 003°17'3 5.3
2018-Jun-22 04:30N 47°29' W 003°15'0 0.4
2018-Jun-22 04:00N 47°29' W 003°15'1 1.9
2018-Jun-22 03:30N 47°30' W 003°16'4 7.5
2018-Jun-22 03:00N 47°34' W 003°18'0 0.7
2018-Jun-22 02:30N 47°34' W 003°17'2 4.5
2018-Jun-22 02:00N 47°36' W 003°19'4 8.6
2018-Jun-22 01:30N 47°40' W 003°21'4 7.9
2018-Jun-22 01:00N 47°44' W 003°22'0 0.0
2018-Jun-21 11:31N 47°44' W 003°22'0 0.0
2018-Jun-21 11:30N 47°44' W 003°22'0 1.0
2018-Jun-21 11:00N 47°43' W 003°22'4 8.0
2018-Jun-21 10:30N 47°39' W 003°21'4 8.6
2018-Jun-21 10:00N 47°35' W 003°18'2 3.6
2018-Jun-21 09:30N 47°34' W 003°17'0 0.4
2018-Jun-21 09:00N 47°34' W 003°17'0 1.0
2018-Jun-21 08:30N 47°34' W 003°18'0 0.9
2018-Jun-21 08:00N 47°33' W 003°17'0 0.3
2018-Jun-21 07:30N 47°33' W 003°17'0 0.8
2018-Jun-21 07:01N 47°33' W 003°18'3 6.3
2018-Jun-21 06:30N 47°32' W 003°22'0 0.9
2018-Jun-21 06:00N 47°32' W 003°22'0 0.9
2018-Jun-21 05:30N 47°32' W 003°21'4 7.7
2018-Jun-21 05:00N 47°30' W 003°17'1 2.6
2018-Jun-21 04:30N 47°29' W 003°15'0 0.4
2018-Jun-21 04:00N 47°29' W 003°15'1 2.6
2018-Jun-21 03:30N 47°31' W 003°16'3 6.0
2018-Jun-21 03:00N 47°33' W 003°18'1 1.4
2018-Jun-21 02:30N 47°34' W 003°17'4 7.9
2018-Jun-21 01:59N 47°37' W 003°20'4 8.8
2018-Jun-21 01:30N 47°41' W 003°22'2 4.8
2018-Jun-21 01:00N 47°44' W 003°22'0 0.0
2018-Jun-20 12:35N 47°44' W 003°22'0 0.3
2018-Jun-20 12:28N 47°44' W 003°22'2 4.0
2018-Jun-20 12:00N 47°42' W 003°22'4 8.5
2018-Jun-20 11:30N 47°38' W 003°20'3 6.3
2018-Jun-20 10:58N 47°35' W 003°18'0 0.8
2018-Jun-20 10:28N 47°35' W 003°18'0 0.6
2018-Jun-20 10:00N 47°34' W 003°18'0 0.9
2018-Jun-20 09:30N 47°35' W 003°19'1 1.1
2018-Jun-20 09:00N 47°34' W 003°18'1 1.3
2018-Jun-20 08:29N 47°34' W 003°19'1 1.8
2018-Jun-20 08:00N 47°34' W 003°18'4 7.3
2018-Jun-20 07:30N 47°32' W 003°22'4 7.1
2018-Jun-20 07:00N 47°33' W 003°17'1 1.6
2018-Jun-20 06:30N 47°32' W 003°16'1 1.7
2018-Jun-20 06:01N 47°32' W 003°18'1 1.1
2018-Jun-20 05:30N 47°32' W 003°17'0 0.7
2018-Jun-20 05:00N 47°31' W 003°17'1 2.1
2018-Jun-20 04:30N 47°30' W 003°16'1 2.0
2018-Jun-20 03:57N 47°30' W 003°15'1 2.0
2018-Jun-20 03:30N 47°30' W 003°16'3 6.9
2018-Jun-20 03:00N 47°34' W 003°18'1 2.5
2018-Jun-20 02:30N 47°35' W 003°19'2 3.8
2018-Jun-20 02:00N 47°37' W 003°19'4 8.5
2018-Jun-20 01:30N 47°40' W 003°22'3 7.0
2018-Jun-20 01:00N 47°44' W 003°22'0 0.0
2018-Jun-19 12:09N 47°44' W 003°22'0 0.2
2018-Jun-19 11:58N 47°44' W 003°22'2 5.0
2018-Jun-19 11:30N 47°41' W 003°22'4 8.6
2018-Jun-19 11:00N 47°37' W 003°20'3 5.8
2018-Jun-19 10:28N 47°34' W 003°19'0 0.7
2018-Jun-19 10:01N 47°34' W 003°19'0 0.4
2018-Jun-19 09:30N 47°34' W 003°19'1 1.5
2018-Jun-19 09:00N 47°34' W 003°20'1 1.4
2018-Jun-19 08:30N 47°34' W 003°19'1 1.5
2018-Jun-19 08:00N 47°33' W 003°18'0 0.8
2018-Jun-19 07:30N 47°34' W 003°18'0 0.4
2018-Jun-19 06:59N 47°34' W 003°17'4 7.0
2018-Jun-19 06:29N 47°32' W 003°22'0 0.7
2018-Jun-19 06:00N 47°32' W 003°22'2 4.0
2018-Jun-19 05:30N 47°31' W 003°19'3 7.0
2018-Jun-19 05:00N 47°29' W 003°15'0 1.0
2018-Jun-19 04:30N 47°30' W 003°14'1 1.1
2018-Jun-19 04:00N 47°30' W 003°15'1 2.9
2018-Jun-19 03:30N 47°31' W 003°16'3 5.5
2018-Jun-19 03:00N 47°34' W 003°17'1 2.4
2018-Jun-19 02:29N 47°34' W 003°19'2 3.5
2018-Jun-19 02:00N 47°36' W 003°19'5 8.6
2018-Jun-19 01:29N 47°40' W 003°22'4 7.8
2018-Jun-19 01:00N 47°44' W 003°22'0 0.0
2018-Jun-18 12:44N 47°44' W 003°22'0 0.2
2018-Jun-18 12:30N 47°44' W 003°22'2 4.0
2018-Jun-18 12:00N 47°42' W 003°22'4 8.2
2018-Jun-18 11:29N 47°38' W 003°21'3 7.2
2018-Jun-18 11:00N 47°34' W 003°19'1 1.1
2018-Jun-18 10:29N 47°34' W 003°19'0 0.5
2018-Jun-18 10:00N 47°34' W 003°19'1 0.9
2018-Jun-18 09:27N 47°34' W 003°18'1 1.2
2018-Jun-18 09:00N 47°34' W 003°17'1 1.8
2018-Jun-18 08:30N 47°33' W 003°18'0 0.8
2018-Jun-18 08:00N 47°33' W 003°18'1 1.6
2018-Jun-18 07:30N 47°33' W 003°17'1 1.3
2018-Jun-18 07:00N 47°33' W 003°18'0 0.5
2018-Jun-18 06:30N 47°33' W 003°18'0 0.6
2018-Jun-18 06:00N 47°32' W 003°18'0 0.8
2018-Jun-18 05:30N 47°32' W 003°18'2 3.4
2018-Jun-18 05:00N 47°31' W 003°16'2 3.9
2018-Jun-18 04:30N 47°30' W 003°13'0 0.4
2018-Jun-18 04:00N 47°30' W 003°13'3 6.8
2018-Jun-18 03:30N 47°32' W 003°17'1 2.7
2018-Jun-18 03:00N 47°34' W 003°17'1 2.2
2018-Jun-18 02:30N 47°34' W 003°19'4 8.3
2018-Jun-18 02:00N 47°38' W 003°21'5 8.5
2018-Jun-18 01:28N 47°43' W 003°22'1 2.0
2018-Jun-18 01:00N 47°44' W 003°22'0 0.0
2018-Jun-16 11:18N 47°44' W 003°22'0 0.1
2018-Jun-16 10:56N 47°44' W 003°22'2 4.7
2018-Jun-16 10:30N 47°42' W 003°22'4 8.2
2018-Jun-16 10:00N 47°38' W 003°20'4 7.6
2018-Jun-16 09:30N 47°35' W 003°17'1 1.2
2018-Jun-16 09:00N 47°35' W 003°18'1 1.2
2018-Jun-16 08:30N 47°34' W 003°19'0 0.8
2018-Jun-16 08:00N 47°34' W 003°19'1 1.3
2018-Jun-16 07:25N 47°34' W 003°18'0 1.1
2018-Jun-16 07:00N 47°34' W 003°17'1 2.5
2018-Jun-16 06:30N 47°33' W 003°18'0 0.3
2018-Jun-16 06:00N 47°33' W 003°18'0 0.7
2018-Jun-16 05:30N 47°33' W 003°18'1 1.6
2018-Jun-16 05:00N 47°32' W 003°17'3 6.2
2018-Jun-16 04:30N 47°30' W 003°14'0 0.7
2018-Jun-16 03:59N 47°30' W 003°15'0 0.7
2018-Jun-16 03:30N 47°30' W 003°15'4 8.2
2018-Jun-16 02:59N 47°34' W 003°17'1 1.4
2018-Jun-16 02:29N 47°34' W 003°18'2 3.9
2018-Jun-16 02:00N 47°36' W 003°18'4 8.5
2018-Jun-16 01:30N 47°40' W 003°22'4 7.7
2018-Jun-16 01:00N 47°44' W 003°22'0 0.0
2018-Jun-15 12:21N 47°44' W 003°22'0 0.1
2018-Jun-15 11:57N 47°44' W 003°22'3 7.3
2018-Jun-15 11:30N 47°40' W 003°22'4 7.3
2018-Jun-15 11:00N 47°39' W 003°17'1 1.1
2018-Jun-15 10:30N 47°39' W 003°16'4 8.3
2018-Jun-15 10:00N 47°35' W 003°15'1 1.7
2018-Jun-15 09:30N 47°35' W 003°14'1 2.5
2018-Jun-15 09:00N 47°35' W 003°16'1 1.2
2018-Jun-15 08:30N 47°35' W 003°17'0 1.0
2018-Jun-15 08:00N 47°35' W 003°17'0 0.8
2018-Jun-15 07:30N 47°35' W 003°17'2 3.6
2018-Jun-15 07:00N 47°33' W 003°19'3 5.7
2018-Jun-15 06:30N 47°31' W 003°22'1 2.1
2018-Jun-15 06:01N 47°32' W 003°21'4 7.8
2018-Jun-15 05:30N 47°30' W 003°16'1 2.0
2018-Jun-15 05:00N 47°30' W 003°15'0 0.5
2018-Jun-15 04:29N 47°30' W 003°15'0 0.6
2018-Jun-15 04:00N 47°30' W 003°15'4 8.7
2018-Jun-15 03:30N 47°34' W 003°14'1 2.9
2018-Jun-15 03:00N 47°35' W 003°17'1 1.2
2018-Jun-15 02:30N 47°35' W 003°17'4 8.7
2018-Jun-15 02:00N 47°40' W 003°16'4 7.4
2018-Jun-15 01:30N 47°41' W 003°21'3 6.4
2018-Jun-15 01:00N 47°44' W 003°22'0 0.0
2018-Jun-14 11:47N 47°44' W 003°22'0 0.1
2018-Jun-14 11:29N 47°44' W 003°22'4 7.4
2018-Jun-14 11:00N 47°40' W 003°22'4 8.1
2018-Jun-14 10:30N 47°37' W 003°19'2 4.1
2018-Jun-14 10:00N 47°35' W 003°18'0 0.4
2018-Jun-14 09:30N 47°35' W 003°18'1 1.1
2018-Jun-14 09:00N 47°34' W 003°18'0 0.7
2018-Jun-14 08:30N 47°34' W 003°19'1 2.0
2018-Jun-14 08:00N 47°34' W 003°17'1 1.8
2018-Jun-14 07:30N 47°34' W 003°19'1 2.1
2018-Jun-14 07:00N 47°34' W 003°17'1 2.3
2018-Jun-14 06:29N 47°33' W 003°18'0 0.5
2018-Jun-14 06:00N 47°33' W 003°18'1 1.2
2018-Jun-14 05:30N 47°32' W 003°18'3 5.1
2018-Jun-14 05:00N 47°30' W 003°15'2 3.2
2018-Jun-14 04:30N 47°30' W 003°13'0 0.6
2018-Jun-14 04:00N 47°30' W 003°14'2 4.7
2018-Jun-14 03:31N 47°32' W 003°15'3 5.1
2018-Jun-14 03:00N 47°34' W 003°18'1 1.7
2018-Jun-14 02:30N 47°35' W 003°18'2 4.9
2018-Jun-14 02:00N 47°37' W 003°19'4 8.8
2018-Jun-14 01:30N 47°41' W 003°22'3 0.2
2018-Jun-13 13:00N 47°44' W 003°22'0 0.1
2018-Jun-13 12:29N 47°44' W 003°22'1 2.2
2018-Jun-13 12:00N 47°43' W 003°22'3 6.6
2018-Jun-13 11:30N 47°39' W 003°22'1 1.3
2018-Jun-13 10:58N 47°39' W 003°21'1 3.2
2018-Jun-13 10:30N 47°38' W 003°19'3 6.8
2018-Jun-13 10:00N 47°35' W 003°17'1 1.9
2018-Jun-13 09:30N 47°34' W 003°18'0 0.4
2018-Jun-13 09:00N 47°34' W 003°18'0 0.4
2018-Jun-13 08:30N 47°34' W 003°18'0 0.4
2018-Jun-13 08:01N 47°34' W 003°19'1 2.0
2018-Jun-13 07:31N 47°33' W 003°18'1 2.3
2018-Jun-13 07:00N 47°32' W 003°17'  
Track history (hours):
 
Tides and Currents Weather Stations Pressure Air Temp Water Temp Dewpoint Dewpoint Depression Visibility Wind Speed Wind Dir Waves Ship Positions

Mab Eol II

Last reported at 2018-Jun-23 06:30 UTC. Time now 2018-Jun-23 06:30 UTC.
Position N 47°34' W 003°18'.

Length 12 m; draft 7.7 m.

Type: Fishing. MMSI: 227316520.

Date/timePositionNaut miles runAvg speedWind from/ knotsBaromVisibWave heightAir tempDewpointWater temp
2018-Jun-23 06:30N 47°34' W 003°18'1 2.9
2018-Jun-23 06:00N 47°32' W 003°16'0 0.8
2018-Jun-23 05:31N 47°32' W 003°16'1 1.3
2018-Jun-23 05:00N 47°32' W 003°17'3 5.6
2018-Jun-23 04:30N 47°29' W 003°15'0 0.8
2018-Jun-23 03:58N 47°30' W 003°16'2 3.3
2018-Jun-23 03:30N 47°31' W 003°16'3 6.0
2018-Jun-23 03:00N 47°34' W 003°17'1 2.1
2018-Jun-23 02:30N 47°35' W 003°17'3 5.2
2018-Jun-23 02:00N 47°37' W 003°19'4 8.5
2018-Jun-23 01:30N 47°41' W 003°22'3 6.3
2018-Jun-23 01:00N 47°44' W 003°22'0 0.0
2018-Jun-22 11:46N 47°44' W 003°22'0 0.2
2018-Jun-22 11:29N 47°44' W 003°22'4 7.6
2018-Jun-22 11:00N 47°40' W 003°22'4 8.6
2018-Jun-22 10:30N 47°36' W 003°20'3 5.0
2018-Jun-22 09:59N 47°34' W 003°18'1 1.6
2018-Jun-22 09:30N 47°34' W 003°17'0 0.7
2018-Jun-22 09:00N 47°34' W 003°18'0 0.5
2018-Jun-22 08:30N 47°34' W 003°18'0 0.7
2018-Jun-22 08:01N 47°34' W 003°18'2 3.4
2018-Jun-22 07:30N 47°32' W 003°18'1 1.6
2018-Jun-22 07:00N 47°33' W 003°18'0 0.7
2018-Jun-22 06:30N 47°33' W 003°18'1 2.1
2018-Jun-22 06:00N 47°32' W 003°17'0 0.8
2018-Jun-22 05:30N 47°32' W 003°17'0 0.8
2018-Jun-22 05:00N 47°32' W 003°17'3 5.3
2018-Jun-22 04:30N 47°29' W 003°15'0 0.4
2018-Jun-22 04:00N 47°29' W 003°15'1 1.9
2018-Jun-22 03:30N 47°30' W 003°16'4 7.5
2018-Jun-22 03:00N 47°34' W 003°18'0 0.7
2018-Jun-22 02:30N 47°34' W 003°17'2 4.5
2018-Jun-22 02:00N 47°36' W 003°19'4 8.6
2018-Jun-22 01:30N 47°40' W 003°21'4 7.9
2018-Jun-22 01:00N 47°44' W 003°22'0 0.0
2018-Jun-21 11:31N 47°44' W 003°22'0 0.0
2018-Jun-21 11:30N 47°44' W 003°22'0 1.0
2018-Jun-21 11:00N 47°43' W 003°22'4 8.0
2018-Jun-21 10:30N 47°39' W 003°21'4 8.6
2018-Jun-21 10:00N 47°35' W 003°18'2 3.6
2018-Jun-21 09:30N 47°34' W 003°17'0 0.4
2018-Jun-21 09:00N 47°34' W 003°17'0 1.0
2018-Jun-21 08:30N 47°34' W 003°18'0 0.9
2018-Jun-21 08:00N 47°33' W 003°17'0 0.3
2018-Jun-21 07:30N 47°33' W 003°17'0 0.8
2018-Jun-21 07:01N 47°33' W 003°18'3 6.3
2018-Jun-21 06:30N 47°32' W 003°22'0 0.9
2018-Jun-21 06:00N 47°32' W 003°22'0 0.9
2018-Jun-21 05:30N 47°32' W 003°21'4 7.7
2018-Jun-21 05:00N 47°30' W 003°17'1 2.6
2018-Jun-21 04:30N 47°29' W 003°15'0 0.4
2018-Jun-21 04:00N 47°29' W 003°15'1 2.6
2018-Jun-21 03:30N 47°31' W 003°16'3 6.0
2018-Jun-21 03:00N 47°33' W 003°18'1 1.4
2018-Jun-21 02:30N 47°34' W 003°17'4 7.9
2018-Jun-21 01:59N 47°37' W 003°20'4 8.8
2018-Jun-21 01:30N 47°41' W 003°22'2 4.8
2018-Jun-21 01:00N 47°44' W 003°22'0 0.0
2018-Jun-20 12:35N 47°44' W 003°22'0 0.3
2018-Jun-20 12:28N 47°44' W 003°22'2 4.0
2018-Jun-20 12:00N 47°42' W 003°22'4 8.5
2018-Jun-20 11:30N 47°38' W 003°20'3 6.3
2018-Jun-20 10:58N 47°35' W 003°18'0 0.8
2018-Jun-20 10:28N 47°35' W 003°18'0 0.6
2018-Jun-20 10:00N 47°34' W 003°18'0 0.9
2018-Jun-20 09:30N 47°35' W 003°19'1 1.1
2018-Jun-20 09:00N 47°34' W 003°18'1 1.3
2018-Jun-20 08:29N 47°34' W 003°19'1 1.8
2018-Jun-20 08:00N 47°34' W 003°18'4 7.3
2018-Jun-20 07:30N 47°32' W 003°22'4 7.1
2018-Jun-20 07:00N 47°33' W 003°17'1 1.6
2018-Jun-20 06:30N 47°32' W 003°16'1 1.7
2018-Jun-20 06:01N 47°32' W 003°18'1 1.1
2018-Jun-20 05:30N 47°32' W 003°17'0 0.7
2018-Jun-20 05:00N 47°31' W 003°17'1 2.1
2018-Jun-20 04:30N 47°30' W 003°16'1 2.0
2018-Jun-20 03:57N 47°30' W 003°15'1 2.0
2018-Jun-20 03:30N 47°30' W 003°16'3 6.9
2018-Jun-20 03:00N 47°34' W 003°18'1 2.5
2018-Jun-20 02:30N 47°35' W 003°19'2 3.8
2018-Jun-20 02:00N 47°37' W 003°19'4 8.5
2018-Jun-20 01:30N 47°40' W 003°22'3 7.0
2018-Jun-20 01:00N 47°44' W 003°22'0 0.0
2018-Jun-19 12:09N 47°44' W 003°22'0 0.2
2018-Jun-19 11:58N 47°44' W 003°22'2 5.0
2018-Jun-19 11:30N 47°41' W 003°22'4 8.6
2018-Jun-19 11:00N 47°37' W 003°20'3 5.8
2018-Jun-19 10:28N 47°34' W 003°19'0 0.7
2018-Jun-19 10:01N 47°34' W 003°19'0 0.4
2018-Jun-19 09:30N 47°34' W 003°19'1 1.5
2018-Jun-19 09:00N 47°34' W 003°20'1 1.4
2018-Jun-19 08:30N 47°34' W 003°19'1 1.5
2018-Jun-19 08:00N 47°33' W 003°18'0 0.8
2018-Jun-19 07:30N 47°34' W 003°18'0 0.4
2018-Jun-19 06:59N 47°34' W 003°17'4 7.0
2018-Jun-19 06:29N 47°32' W 003°22'0 0.7
2018-Jun-19 06:00N 47°32' W 003°22'2 4.0
2018-Jun-19 05:30N 47°31' W 003°19'3 7.0
2018-Jun-19 05:00N 47°29' W 003°15'0 1.0
2018-Jun-19 04:30N 47°30' W 003°14'1 1.1
2018-Jun-19 04:00N 47°30' W 003°15'1 2.9
2018-Jun-19 03:30N 47°31' W 003°16'3 5.5
2018-Jun-19 03:00N 47°34' W 003°17'1 2.4
2018-Jun-19 02:29N 47°34' W 003°19'2 3.5
2018-Jun-19 02:00N 47°36' W 003°19'5 8.6
2018-Jun-19 01:29N 47°40' W 003°22'4 7.8
2018-Jun-19 01:00N 47°44' W 003°22'0 0.0
2018-Jun-18 12:44N 47°44' W 003°22'0 0.2
2018-Jun-18 12:30N 47°44' W 003°22'2 4.0
2018-Jun-18 12:00N 47°42' W 003°22'4 8.2
2018-Jun-18 11:29N 47°38' W 003°21'3 7.2
2018-Jun-18 11:00N 47°34' W 003°19'1 1.1
2018-Jun-18 10:29N 47°34' W 003°19'0 0.5
2018-Jun-18 10:00N 47°34' W 003°19'1 0.9
2018-Jun-18 09:27N 47°34' W 003°18'1 1.2
2018-Jun-18 09:00N 47°34' W 003°17'1 1.8
2018-Jun-18 08:30N 47°33' W 003°18'0 0.8
2018-Jun-18 08:00N 47°33' W 003°18'1 1.6
2018-Jun-18 07:30N 47°33' W 003°17'1 1.3
2018-Jun-18 07:00N 47°33' W 003°18'0 0.5
2018-Jun-18 06:30N 47°33' W 003°18'0 0.6
2018-Jun-18 06:00N 47°32' W 003°18'0 0.8
2018-Jun-18 05:30N 47°32' W 003°18'2 3.4
2018-Jun-18 05:00N 47°31' W 003°16'2 3.9
2018-Jun-18 04:30N 47°30' W 003°13'0 0.4
2018-Jun-18 04:00N 47°30' W 003°13'3 6.8
2018-Jun-18 03:30N 47°32' W 003°17'1 2.7
2018-Jun-18 03:00N 47°34' W 003°17'1 2.2
2018-Jun-18 02:30N 47°34' W 003°19'4 8.3
2018-Jun-18 02:00N 47°38' W 003°21'5 8.5
2018-Jun-18 01:28N 47°43' W 003°22'1 2.0
2018-Jun-18 01:00N 47°44' W 003°22'0 0.0
2018-Jun-16 11:18N 47°44' W 003°22'0 0.1
2018-Jun-16 10:56N 47°44' W 003°22'2 4.7
2018-Jun-16 10:30N 47°42' W 003°22'4 8.2
2018-Jun-16 10:00N 47°38' W 003°20'4 7.6
2018-Jun-16 09:30N 47°35' W 003°17'1 1.2
2018-Jun-16 09:00N 47°35' W 003°18'1 1.2
2018-Jun-16 08:30N 47°34' W 003°19'0 0.8
2018-Jun-16 08:00N 47°34' W 003°19'1 1.3
2018-Jun-16 07:25N 47°34' W 003°18'0 1.1
2018-Jun-16 07:00N 47°34' W 003°17'1 2.5
2018-Jun-16 06:30N 47°33' W 003°18'0 0.3
2018-Jun-16 06:00N 47°33' W 003°18'0 0.7
2018-Jun-16 05:30N 47°33' W 003°18'1 1.6
2018-Jun-16 05:00N 47°32' W 003°17'3 6.2
2018-Jun-16 04:30N 47°30' W 003°14'0 0.7
2018-Jun-16 03:59N 47°30' W 003°15'0 0.7
2018-Jun-16 03:30N 47°30' W 003°15'4 8.2
2018-Jun-16 02:59N 47°34' W 003°17'1 1.4
2018-Jun-16 02:29N 47°34' W 003°18'2 3.9
2018-Jun-16 02:00N 47°36' W 003°18'4 8.5
2018-Jun-16 01:30N 47°40' W 003°22'4 7.7
2018-Jun-16 01:00N 47°44' W 003°22'0 0.0
2018-Jun-15 12:21N 47°44' W 003°22'0 0.1
2018-Jun-15 11:57N 47°44' W 003°22'3 7.3
2018-Jun-15 11:30N 47°40' W 003°22'4 7.3
2018-Jun-15 11:00N 47°39' W 003°17'1 1.1
2018-Jun-15 10:30N 47°39' W 003°16'4 8.3
2018-Jun-15 10:00N 47°35' W 003°15'1 1.7
2018-Jun-15 09:30N 47°35' W 003°14'1 2.5
2018-Jun-15 09:00N 47°35' W 003°16'1 1.2
2018-Jun-15 08:30N 47°35' W 003°17'0 1.0
2018-Jun-15 08:00N 47°35' W 003°17'0 0.8
2018-Jun-15 07:30N 47°35' W 003°17'2 3.6
2018-Jun-15 07:00N 47°33' W 003°19'3 5.7
2018-Jun-15 06:30N 47°31' W 003°22'1 2.1
2018-Jun-15 06:01N 47°32' W 003°21'4 7.8
2018-Jun-15 05:30N 47°30' W 003°16'1 2.0
2018-Jun-15 05:00N 47°30' W 003°15'0 0.5
2018-Jun-15 04:29N 47°30' W 003°15'0 0.6
2018-Jun-15 04:00N 47°30' W 003°15'4 8.7
2018-Jun-15 03:30N 47°34' W 003°14'1 2.9
2018-Jun-15 03:00N 47°35' W 003°17'1 1.2
2018-Jun-15 02:30N 47°35' W 003°17'4 8.7
2018-Jun-15 02:00N 47°40' W 003°16'4 7.4
2018-Jun-15 01:30N 47°41' W 003°21'3 6.4
2018-Jun-15 01:00N 47°44' W 003°22'0 0.0
2018-Jun-14 11:47N 47°44' W 003°22'0 0.1
2018-Jun-14 11:29N 47°44' W 003°22'4 7.4
2018-Jun-14 11:00N 47°40' W 003°22'4 8.1
2018-Jun-14 10:30N 47°37' W 003°19'2 4.1
2018-Jun-14 10:00N 47°35' W 003°18'0 0.4
2018-Jun-14 09:30N 47°35' W 003°18'1 1.1
2018-Jun-14 09:00N 47°34' W 003°18'0 0.7
2018-Jun-14 08:30N 47°34' W 003°19'1 2.0
2018-Jun-14 08:00N 47°34' W 003°17'1 1.8
2018-Jun-14 07:30N 47°34' W 003°19'1 2.1
2018-Jun-14 07:00N 47°34' W 003°17'1 2.3
2018-Jun-14 06:29N 47°33' W 003°18'0 0.5
2018-Jun-14 06:00N 47°33' W 003°18'1 1.2
2018-Jun-14 05:30N 47°32' W 003°18'3 5.1
2018-Jun-14 05:00N 47°30' W 003°15'2 3.2
2018-Jun-14 04:30N 47°30' W 003°13'0 0.6
2018-Jun-14 04:00N 47°30' W 003°14'2 4.7
2018-Jun-14 03:31N 47°32' W 003°15'3 5.1
2018-Jun-14 03:00N 47°34' W 003°18'1 1.7
2018-Jun-14 02:30N 47°35' W 003°18'2 4.9
2018-Jun-14 02:00N 47°37' W 003°19'4 8.8
2018-Jun-14 01:30N 47°41' W 003°22'3 0.2
2018-Jun-13 13:00N 47°44' W 003°22'0 0.1
2018-Jun-13 12:29N 47°44' W 003°22'1 2.2
2018-Jun-13 12:00N 47°43' W 003°22'3 6.6
2018-Jun-13 11:30N 47°39' W 003°22'1 1.3
2018-Jun-13 10:58N 47°39' W 003°21'1 3.2
2018-Jun-13 10:30N 47°38' W 003°19'3 6.8
2018-Jun-13 10:00N 47°35' W 003°17'1 1.9
2018-Jun-13 09:30N 47°34' W 003°18'0 0.4
2018-Jun-13 09:00N 47°34' W 003°18'0 0.4
2018-Jun-13 08:30N 47°34' W 003°18'0 0.4
2018-Jun-13 08:01N 47°34' W 003°19'1 2.0
2018-Jun-13 07:31N 47°33' W 003°18'1 2.3
2018-Jun-13 07:00N 47°32' W 003°17'  

Dump ship's entire track history